sensor_id;sensor_type;location;lat;lon;timestamp;P1;durP1;ratioP1;P2;durP2;ratioP2
10509;SDS011;5303;53.266;10.410;2022-10-15T00:01:21;8.23;;;6.77;;
10509;SDS011;5303;53.266;10.410;2022-10-15T00:03:46;8.77;;;6.50;;
10509;SDS011;5303;53.266;10.410;2022-10-15T00:06:13;9.67;;;7.10;;
10509;SDS011;5303;53.266;10.410;2022-10-15T00:08:40;9.50;;;7.17;;
10509;SDS011;5303;53.266;10.410;2022-10-15T00:11:07;10.37;;;6.63;;
10509;SDS011;5303;53.266;10.410;2022-10-15T00:13:35;8.27;;;6.60;;
10509;SDS011;5303;53.266;10.410;2022-10-15T00:16:01;7.53;;;6.17;;
10509;SDS011;5303;53.266;10.410;2022-10-15T00:18:27;7.80;;;6.23;;
10509;SDS011;5303;53.266;10.410;2022-10-15T00:20:53;7.20;;;6.50;;
10509;SDS011;5303;53.266;10.410;2022-10-15T00:23:18;9.83;;;7.00;;
10509;SDS011;5303;53.266;10.410;2022-10-15T00:25:44;8.80;;;7.07;;
10509;SDS011;5303;53.266;10.410;2022-10-15T00:28:09;8.50;;;7.10;;
10509;SDS011;5303;53.266;10.410;2022-10-15T00:30:34;8.87;;;7.23;;
10509;SDS011;5303;53.266;10.410;2022-10-15T00:33:00;10.83;;;8.00;;
10509;SDS011;5303;53.266;10.410;2022-10-15T00:35:25;10.50;;;7.67;;
10509;SDS011;5303;53.266;10.410;2022-10-15T00:37:50;8.33;;;7.03;;
10509;SDS011;5303;53.266;10.410;2022-10-15T00:40:16;8.20;;;7.03;;
10509;SDS011;5303;53.266;10.410;2022-10-15T00:42:41;12.63;;;7.80;;
10509;SDS011;5303;53.266;10.410;2022-10-15T00:45:13;9.03;;;6.93;;
10509;SDS011;5303;53.266;10.410;2022-10-15T00:47:43;10.27;;;7.50;;
10509;SDS011;5303;53.266;10.410;2022-10-15T00:50:13;11.03;;;8.00;;
10509;SDS011;5303;53.266;10.410;2022-10-15T00:52:53;10.13;;;8.33;;
10509;SDS011;5303;53.266;10.410;2022-10-15T00:55:28;8.93;;;8.00;;
10509;SDS011;5303;53.266;10.410;2022-10-15T00:58:00;12.00;;;8.20;;
10509;SDS011;5303;53.266;10.410;2022-10-15T01:00:29;10.40;;;7.87;;
10509;SDS011;5303;53.266;10.410;2022-10-15T01:02:55;9.70;;;8.07;;
10509;SDS011;5303;53.266;10.410;2022-10-15T01:05:20;11.83;;;8.50;;
10509;SDS011;5303;53.266;10.410;2022-10-15T01:07:46;9.43;;;8.17;;
10509;SDS011;5303;53.266;10.410;2022-10-15T01:10:11;9.83;;;8.30;;
10509;SDS011;5303;53.266;10.410;2022-10-15T01:18:26;11.00;;;8.87;;
10509;SDS011;5303;53.266;10.410;2022-10-15T01:21:12;11.70;;;8.33;;
10509;SDS011;5303;53.266;10.410;2022-10-15T01:26:49;9.93;;;8.90;;
10509;SDS011;5303;53.266;10.410;2022-10-15T01:29:51;10.23;;;8.27;;
10509;SDS011;5303;53.266;10.410;2022-10-15T01:32:28;10.17;;;8.70;;
10509;SDS011;5303;53.266;10.410;2022-10-15T01:40:25;10.60;;;9.00;;
10509;SDS011;5303;53.266;10.410;2022-10-15T01:42:55;11.50;;;10.00;;
10509;SDS011;5303;53.266;10.410;2022-10-15T01:45:37;12.77;;;10.23;;
10509;SDS011;5303;53.266;10.410;2022-10-15T01:48:08;12.43;;;10.00;;
10509;SDS011;5303;53.266;10.410;2022-10-15T01:50:36;13.97;;;10.97;;
10509;SDS011;5303;53.266;10.410;2022-10-15T01:53:07;12.57;;;9.70;;
10509;SDS011;5303;53.266;10.410;2022-10-15T01:55:34;12.77;;;11.13;;
10509;SDS011;5303;53.266;10.410;2022-10-15T01:58:03;13.17;;;11.23;;
10509;SDS011;5303;53.266;10.410;2022-10-15T02:00:30;15.90;;;12.07;;
10509;SDS011;5303;53.266;10.410;2022-10-15T02:03:01;14.03;;;11.93;;
10509;SDS011;5303;53.266;10.410;2022-10-15T02:05:36;15.73;;;11.53;;
10509;SDS011;5303;53.266;10.410;2022-10-15T02:08:18;17.97;;;12.43;;
10509;SDS011;5303;53.266;10.410;2022-10-15T02:11:08;13.67;;;12.27;;
10509;SDS011;5303;53.266;10.410;2022-10-15T02:13:59;15.90;;;13.10;;
10509;SDS011;5303;53.266;10.410;2022-10-15T02:16:48;17.03;;;13.07;;
10509;SDS011;5303;53.266;10.410;2022-10-15T02:19:22;16.13;;;13.80;;
10509;SDS011;5303;53.266;10.410;2022-10-15T02:21:58;17.07;;;12.77;;
10509;SDS011;5303;53.266;10.410;2022-10-15T02:24:40;16.67;;;13.87;;
10509;SDS011;5303;53.266;10.410;2022-10-15T02:27:22;15.53;;;13.77;;
10509;SDS011;5303;53.266;10.410;2022-10-15T02:29:49;17.47;;;13.67;;
10509;SDS011;5303;53.266;10.410;2022-10-15T02:32:16;17.03;;;13.23;;
10509;SDS011;5303;53.266;10.410;2022-10-15T02:34:45;15.33;;;12.60;;
10509;SDS011;5303;53.266;10.410;2022-10-15T02:37:11;17.53;;;14.30;;
10509;SDS011;5303;53.266;10.410;2022-10-15T02:39:37;17.57;;;14.73;;
10509;SDS011;5303;53.266;10.410;2022-10-15T02:42:02;17.47;;;14.10;;
10509;SDS011;5303;53.266;10.410;2022-10-15T02:44:28;17.27;;;14.53;;
10509;SDS011;5303;53.266;10.410;2022-10-15T02:46:53;16.60;;;14.30;;
10509;SDS011;5303;53.266;10.410;2022-10-15T02:49:20;17.27;;;14.67;;
10509;SDS011;5303;53.266;10.410;2022-10-15T02:51:45;18.73;;;14.47;;
10509;SDS011;5303;53.266;10.410;2022-10-15T02:54:10;16.17;;;13.57;;
10509;SDS011;5303;53.266;10.410;2022-10-15T02:56:35;19.23;;;14.10;;
10509;SDS011;5303;53.266;10.410;2022-10-15T02:59:03;16.57;;;13.10;;
10509;SDS011;5303;53.266;10.410;2022-10-15T03:01:29;14.20;;;12.30;;
10509;SDS011;5303;53.266;10.410;2022-10-15T03:03:55;17.13;;;12.80;;
10509;SDS011;5303;53.266;10.410;2022-10-15T03:06:20;16.47;;;11.93;;
10509;SDS011;5303;53.266;10.410;2022-10-15T03:08:45;15.87;;;10.63;;
10509;SDS011;5303;53.266;10.410;2022-10-15T03:11:10;13.57;;;10.63;;
10509;SDS011;5303;53.266;10.410;2022-10-15T03:13:39;13.80;;;9.77;;
10509;SDS011;5303;53.266;10.410;2022-10-15T03:16:05;12.93;;;9.03;;
10509;SDS011;5303;53.266;10.410;2022-10-15T03:18:32;14.07;;;10.77;;
10509;SDS011;5303;53.266;10.410;2022-10-15T03:20:58;12.73;;;9.40;;
10509;SDS011;5303;53.266;10.410;2022-10-15T03:23:24;13.70;;;9.67;;
10509;SDS011;5303;53.266;10.410;2022-10-15T03:25:50;11.83;;;9.17;;
10509;SDS011;5303;53.266;10.410;2022-10-15T03:28:16;12.33;;;9.80;;
10509;SDS011;5303;53.266;10.410;2022-10-15T03:30:41;12.00;;;9.63;;
10509;SDS011;5303;53.266;10.410;2022-10-15T03:33:07;13.37;;;8.93;;
10509;SDS011;5303;53.266;10.410;2022-10-15T03:35:32;9.87;;;8.47;;
10509;SDS011;5303;53.266;10.410;2022-10-15T03:37:58;13.17;;;8.87;;
10509;SDS011;5303;53.266;10.410;2022-10-15T03:40:23;12.37;;;9.20;;
10509;SDS011;5303;53.266;10.410;2022-10-15T03:42:49;14.63;;;10.00;;
10509;SDS011;5303;53.266;10.410;2022-10-15T03:45:15;12.03;;;9.30;;
10509;SDS011;5303;53.266;10.410;2022-10-15T03:47:41;15.27;;;10.17;;
10509;SDS011;5303;53.266;10.410;2022-10-15T03:50:07;9.93;;;8.17;;
10509;SDS011;5303;53.266;10.410;2022-10-15T03:52:32;12.37;;;8.60;;
10509;SDS011;5303;53.266;10.410;2022-10-15T03:54:57;13.63;;;10.40;;
10509;SDS011;5303;53.266;10.410;2022-10-15T03:57:23;12.97;;;9.77;;
10509;SDS011;5303;53.266;10.410;2022-10-15T03:59:48;13.23;;;9.73;;
10509;SDS011;5303;53.266;10.410;2022-10-15T04:02:13;10.80;;;9.00;;
10509;SDS011;5303;53.266;10.410;2022-10-15T04:04:39;9.57;;;8.00;;
10509;SDS011;5303;53.266;10.410;2022-10-15T04:07:04;11.17;;;8.83;;
10509;SDS011;5303;53.266;10.410;2022-10-15T04:09:29;11.33;;;8.03;;
10509;SDS011;5303;53.266;10.410;2022-10-15T04:11:55;11.50;;;9.33;;
10509;SDS011;5303;53.266;10.410;2022-10-15T04:14:20;11.30;;;8.83;;
10509;SDS011;5303;53.266;10.410;2022-10-15T04:16:45;12.67;;;9.73;;
10509;SDS011;5303;53.266;10.410;2022-10-15T04:19:11;11.73;;;9.57;;
10509;SDS011;5303;53.266;10.410;2022-10-15T04:21:36;10.97;;;8.37;;
10509;SDS011;5303;53.266;10.410;2022-10-15T04:24:01;12.63;;;9.30;;
10509;SDS011;5303;53.266;10.410;2022-10-15T04:26:27;14.43;;;11.00;;
10509;SDS011;5303;53.266;10.410;2022-10-15T04:28:52;14.93;;;11.00;;
10509;SDS011;5303;53.266;10.410;2022-10-15T04:31:17;15.50;;;11.37;;
10509;SDS011;5303;53.266;10.410;2022-10-15T04:33:43;15.17;;;11.57;;
10509;SDS011;5303;53.266;10.410;2022-10-15T04:36:11;18.43;;;13.47;;
10509;SDS011;5303;53.266;10.410;2022-10-15T04:38:37;15.33;;;11.73;;
10509;SDS011;5303;53.266;10.410;2022-10-15T04:41:03;17.30;;;13.20;;
10509;SDS011;5303;53.266;10.410;2022-10-15T04:43:30;14.10;;;11.83;;
10509;SDS011;5303;53.266;10.410;2022-10-15T04:45:56;21.60;;;14.57;;
10509;SDS011;5303;53.266;10.410;2022-10-15T04:48:23;18.03;;;13.63;;
10509;SDS011;5303;53.266;10.410;2022-10-15T04:50:49;14.97;;;12.10;;
10509;SDS011;5303;53.266;10.410;2022-10-15T04:53:15;22.73;;;16.13;;
10509;SDS011;5303;53.266;10.410;2022-10-15T04:55:40;19.13;;;14.77;;
10509;SDS011;5303;53.266;10.410;2022-10-15T04:58:05;19.67;;;15.10;;
10509;SDS011;5303;53.266;10.410;2022-10-15T05:00:30;21.43;;;15.50;;
10509;SDS011;5303;53.266;10.410;2022-10-15T05:02:56;18.37;;;13.83;;
10509;SDS011;5303;53.266;10.410;2022-10-15T05:05:21;20.53;;;14.63;;
10509;SDS011;5303;53.266;10.410;2022-10-15T05:07:46;21.37;;;14.80;;
10509;SDS011;5303;53.266;10.410;2022-10-15T05:10:11;23.30;;;15.83;;
10509;SDS011;5303;53.266;10.410;2022-10-15T05:12:37;24.80;;;17.43;;
10509;SDS011;5303;53.266;10.410;2022-10-15T05:15:02;23.97;;;16.67;;
10509;SDS011;5303;53.266;10.410;2022-10-15T05:17:28;28.43;;;18.37;;
10509;SDS011;5303;53.266;10.410;2022-10-15T05:19:54;25.00;;;17.80;;
10509;SDS011;5303;53.266;10.410;2022-10-15T05:22:19;26.33;;;17.43;;
10509;SDS011;5303;53.266;10.410;2022-10-15T05:24:45;23.83;;;16.77;;
10509;SDS011;5303;53.266;10.410;2022-10-15T05:27:10;27.57;;;18.37;;
10509;SDS011;5303;53.266;10.410;2022-10-15T05:29:35;24.93;;;15.40;;
10509;SDS011;5303;53.266;10.410;2022-10-15T05:32:02;21.90;;;14.90;;
10509;SDS011;5303;53.266;10.410;2022-10-15T05:34:27;22.50;;;15.63;;
10509;SDS011;5303;53.266;10.410;2022-10-15T05:36:54;20.23;;;14.47;;
10509;SDS011;5303;53.266;10.410;2022-10-15T05:39:20;20.83;;;13.67;;
10509;SDS011;5303;53.266;10.410;2022-10-15T05:41:46;17.57;;;13.23;;
10509;SDS011;5303;53.266;10.410;2022-10-15T05:44:11;24.07;;;13.53;;
10509;SDS011;5303;53.266;10.410;2022-10-15T05:46:36;19.30;;;12.53;;
10509;SDS011;5303;53.266;10.410;2022-10-15T05:49:02;18.97;;;12.63;;
10509;SDS011;5303;53.266;10.410;2022-10-15T05:51:27;18.77;;;12.07;;
10509;SDS011;5303;53.266;10.410;2022-10-15T05:53:53;18.07;;;12.23;;
10509;SDS011;5303;53.266;10.410;2022-10-15T05:56:20;16.93;;;12.40;;
10509;SDS011;5303;53.266;10.410;2022-10-15T05:58:45;16.70;;;11.17;;
10509;SDS011;5303;53.266;10.410;2022-10-15T06:01:11;16.17;;;11.00;;
10509;SDS011;5303;53.266;10.410;2022-10-15T06:03:38;16.67;;;10.60;;
10509;SDS011;5303;53.266;10.410;2022-10-15T06:06:04;14.63;;;11.43;;
10509;SDS011;5303;53.266;10.410;2022-10-15T06:08:36;22.17;;;14.33;;
10509;SDS011;5303;53.266;10.410;2022-10-15T06:11:02;15.63;;;11.23;;
10509;SDS011;5303;53.266;10.410;2022-10-15T06:13:28;16.17;;;10.67;;
10509;SDS011;5303;53.266;10.410;2022-10-15T06:15:53;23.60;;;13.47;;
10509;SDS011;5303;53.266;10.410;2022-10-15T06:18:18;18.70;;;12.83;;
10509;SDS011;5303;53.266;10.410;2022-10-15T06:20:44;19.73;;;13.43;;
10509;SDS011;5303;53.266;10.410;2022-10-15T06:23:15;19.97;;;14.63;;
10509;SDS011;5303;53.266;10.410;2022-10-15T06:25:40;22.83;;;15.50;;
10509;SDS011;5303;53.266;10.410;2022-10-15T06:28:06;24.13;;;15.80;;
10509;SDS011;5303;53.266;10.410;2022-10-15T06:30:31;19.87;;;14.53;;
10509;SDS011;5303;53.266;10.410;2022-10-15T06:32:57;22.47;;;15.37;;
10509;SDS011;5303;53.266;10.410;2022-10-15T06:35:23;19.00;;;13.70;;
10509;SDS011;5303;53.266;10.410;2022-10-15T06:37:50;22.40;;;15.30;;
10509;SDS011;5303;53.266;10.410;2022-10-15T06:40:15;24.07;;;15.63;;
10509;SDS011;5303;53.266;10.410;2022-10-15T06:42:41;27.07;;;16.47;;
10509;SDS011;5303;53.266;10.410;2022-10-15T06:45:07;22.10;;;15.30;;
10509;SDS011;5303;53.266;10.410;2022-10-15T06:47:36;23.67;;;15.97;;
10509;SDS011;5303;53.266;10.410;2022-10-15T06:50:04;22.60;;;16.00;;
10509;SDS011;5303;53.266;10.410;2022-10-15T06:52:30;21.57;;;15.77;;
10509;SDS011;5303;53.266;10.410;2022-10-15T06:54:56;20.57;;;14.53;;
10509;SDS011;5303;53.266;10.410;2022-10-15T06:57:21;25.73;;;16.23;;
10509;SDS011;5303;53.266;10.410;2022-10-15T06:59:49;18.63;;;13.37;;
10509;SDS011;5303;53.266;10.410;2022-10-15T07:02:14;24.10;;;15.77;;
10509;SDS011;5303;53.266;10.410;2022-10-15T07:04:41;26.00;;;16.20;;
10509;SDS011;5303;53.266;10.410;2022-10-15T07:07:07;20.73;;;15.50;;
10509;SDS011;5303;53.266;10.410;2022-10-15T07:09:32;22.90;;;15.43;;
10509;SDS011;5303;53.266;10.410;2022-10-15T07:11:59;21.37;;;15.07;;
10509;SDS011;5303;53.266;10.410;2022-10-15T07:14:24;20.23;;;14.70;;
10509;SDS011;5303;53.266;10.410;2022-10-15T07:16:49;21.53;;;15.20;;
10509;SDS011;5303;53.266;10.410;2022-10-15T07:19:15;22.40;;;16.13;;
10509;SDS011;5303;53.266;10.410;2022-10-15T07:21:40;23.30;;;15.93;;
10509;SDS011;5303;53.266;10.410;2022-10-15T07:24:05;23.20;;;15.97;;
10509;SDS011;5303;53.266;10.410;2022-10-15T07:26:31;22.53;;;16.10;;
10509;SDS011;5303;53.266;10.410;2022-10-15T07:28:56;24.40;;;16.43;;
10509;SDS011;5303;53.266;10.410;2022-10-15T07:31:21;21.50;;;15.73;;
10509;SDS011;5303;53.266;10.410;2022-10-15T07:33:47;24.03;;;15.60;;
10509;SDS011;5303;53.266;10.410;2022-10-15T07:36:12;22.07;;;15.53;;
10509;SDS011;5303;53.266;10.410;2022-10-15T07:38:38;24.80;;;16.70;;
10509;SDS011;5303;53.266;10.410;2022-10-15T07:41:07;22.00;;;15.37;;
10509;SDS011;5303;53.266;10.410;2022-10-15T07:43:34;24.17;;;16.67;;
10509;SDS011;5303;53.266;10.410;2022-10-15T07:46:00;20.37;;;15.77;;
10509;SDS011;5303;53.266;10.410;2022-10-15T07:48:27;25.03;;;17.20;;
10509;SDS011;5303;53.266;10.410;2022-10-15T07:51:02;26.67;;;17.00;;
10509;SDS011;5303;53.266;10.410;2022-10-15T07:53:29;25.23;;;17.97;;
10509;SDS011;5303;53.266;10.410;2022-10-15T07:55:59;27.03;;;17.33;;
10509;SDS011;5303;53.266;10.410;2022-10-15T07:58:26;23.00;;;14.93;;
10509;SDS011;5303;53.266;10.410;2022-10-15T08:00:52;24.03;;;17.30;;
10509;SDS011;5303;53.266;10.410;2022-10-15T08:03:17;23.97;;;16.77;;
10509;SDS011;5303;53.266;10.410;2022-10-15T08:05:43;25.57;;;17.03;;
10509;SDS011;5303;53.266;10.410;2022-10-15T08:08:08;21.27;;;15.27;;
10509;SDS011;5303;53.266;10.410;2022-10-15T08:10:34;21.40;;;14.47;;
10509;SDS011;5303;53.266;10.410;2022-10-15T08:12:59;24.47;;;15.50;;
10509;SDS011;5303;53.266;10.410;2022-10-15T08:15:25;21.47;;;14.67;;
10509;SDS011;5303;53.266;10.410;2022-10-15T08:17:50;21.80;;;14.80;;
10509;SDS011;5303;53.266;10.410;2022-10-15T08:20:15;20.50;;;14.70;;
10509;SDS011;5303;53.266;10.410;2022-10-15T08:22:41;21.10;;;14.37;;
10509;SDS011;5303;53.266;10.410;2022-10-15T08:25:06;21.47;;;15.13;;
10509;SDS011;5303;53.266;10.410;2022-10-15T08:27:32;21.73;;;14.97;;
10509;SDS011;5303;53.266;10.410;2022-10-15T08:29:57;23.13;;;14.60;;
10509;SDS011;5303;53.266;10.410;2022-10-15T08:32:22;21.30;;;14.90;;
10509;SDS011;5303;53.266;10.410;2022-10-15T08:34:47;19.47;;;14.37;;
10509;SDS011;5303;53.266;10.410;2022-10-15T08:37:13;22.87;;;15.23;;
10509;SDS011;5303;53.266;10.410;2022-10-15T08:39:38;23.97;;;15.37;;
10509;SDS011;5303;53.266;10.410;2022-10-15T08:42:04;19.77;;;14.53;;
10509;SDS011;5303;53.266;10.410;2022-10-15T08:47:28;16.47;;;13.57;;
10509;SDS011;5303;53.266;10.410;2022-10-15T08:52:58;19.53;;;12.37;;
10509;SDS011;5303;53.266;10.410;2022-10-15T08:55:26;17.50;;;12.50;;
10509;SDS011;5303;53.266;10.410;2022-10-15T09:00:37;19.63;;;13.37;;
10509;SDS011;5303;53.266;10.410;2022-10-15T09:03:22;18.23;;;13.03;;
10509;SDS011;5303;53.266;10.410;2022-10-15T09:05:56;17.87;;;11.27;;
10509;SDS011;5303;53.266;10.410;2022-10-15T09:08:34;19.93;;;12.47;;
10509;SDS011;5303;53.266;10.410;2022-10-15T09:11:11;14.80;;;11.60;;
10509;SDS011;5303;53.266;10.410;2022-10-15T09:13:46;17.40;;;12.07;;
10509;SDS011;5303;53.266;10.410;2022-10-15T09:16:19;17.17;;;11.47;;
10509;SDS011;5303;53.266;10.410;2022-10-15T09:18:50;13.77;;;10.87;;
10509;SDS011;5303;53.266;10.410;2022-10-15T09:21:16;16.07;;;10.50;;
10509;SDS011;5303;53.266;10.410;2022-10-15T09:23:42;15.20;;;10.50;;
10509;SDS011;5303;53.266;10.410;2022-10-15T09:31:40;14.30;;;10.50;;
10509;SDS011;5303;53.266;10.410;2022-10-15T09:34:14;17.57;;;11.07;;
10509;SDS011;5303;53.266;10.410;2022-10-15T09:36:52;14.03;;;9.87;;
10509;SDS011;5303;53.266;10.410;2022-10-15T09:42:33;14.10;;;10.23;;
10509;SDS011;5303;53.266;10.410;2022-10-15T09:45:07;16.23;;;10.53;;
10509;SDS011;5303;53.266;10.410;2022-10-15T09:47:34;12.70;;;9.20;;
10509;SDS011;5303;53.266;10.410;2022-10-15T09:50:04;12.57;;;10.00;;
10509;SDS011;5303;53.266;10.410;2022-10-15T09:55:32;11.97;;;9.13;;
10509;SDS011;5303;53.266;10.410;2022-10-15T09:58:18;12.40;;;8.77;;
10509;SDS011;5303;53.266;10.410;2022-10-15T10:00:54;11.87;;;9.47;;
10509;SDS011;5303;53.266;10.410;2022-10-15T10:03:28;14.43;;;9.27;;
10509;SDS011;5303;53.266;10.410;2022-10-15T10:06:10;14.80;;;9.13;;
10509;SDS011;5303;53.266;10.410;2022-10-15T10:11:17;13.50;;;8.67;;
10509;SDS011;5303;53.266;10.410;2022-10-15T10:13:44;12.47;;;8.47;;
10509;SDS011;5303;53.266;10.410;2022-10-15T10:16:16;10.53;;;7.53;;
10509;SDS011;5303;53.266;10.410;2022-10-15T10:18:43;8.43;;;6.53;;
10509;SDS011;5303;53.266;10.410;2022-10-15T10:21:29;10.70;;;7.83;;
10509;SDS011;5303;53.266;10.410;2022-10-15T10:23:59;9.93;;;7.30;;
10509;SDS011;5303;53.266;10.410;2022-10-15T10:26:56;12.93;;;7.87;;
10509;SDS011;5303;53.266;10.410;2022-10-15T10:29:22;9.60;;;7.00;;
10509;SDS011;5303;53.266;10.410;2022-10-15T10:31:49;8.77;;;6.63;;
10509;SDS011;5303;53.266;10.410;2022-10-15T10:34:17;10.40;;;6.93;;
10509;SDS011;5303;53.266;10.410;2022-10-15T10:36:51;10.27;;;6.93;;
10509;SDS011;5303;53.266;10.410;2022-10-15T10:41:53;12.10;;;6.80;;
10509;SDS011;5303;53.266;10.410;2022-10-15T10:44:29;11.60;;;7.30;;
10509;SDS011;5303;53.266;10.410;2022-10-15T10:49:52;9.23;;;6.30;;
10509;SDS011;5303;53.266;10.410;2022-10-15T10:52:17;10.90;;;7.10;;
10509;SDS011;5303;53.266;10.410;2022-10-15T10:54:50;7.63;;;6.20;;
10509;SDS011;5303;53.266;10.410;2022-10-15T10:57:24;9.50;;;6.33;;
10509;SDS011;5303;53.266;10.410;2022-10-15T10:59:56;9.80;;;6.43;;
10509;SDS011;5303;53.266;10.410;2022-10-15T11:02:21;9.23;;;6.27;;
10509;SDS011;5303;53.266;10.410;2022-10-15T11:04:47;8.67;;;6.13;;
10509;SDS011;5303;53.266;10.410;2022-10-15T11:07:37;8.37;;;6.00;;
10509;SDS011;5303;53.266;10.410;2022-10-15T11:10:23;7.40;;;5.57;;
10509;SDS011;5303;53.266;10.410;2022-10-15T11:13:05;7.47;;;5.87;;
10509;SDS011;5303;53.266;10.410;2022-10-15T11:21:32;8.17;;;5.50;;
10509;SDS011;5303;53.266;10.410;2022-10-15T11:27:12;8.10;;;5.90;;
10509;SDS011;5303;53.266;10.410;2022-10-15T11:32:47;7.53;;;4.23;;
10509;SDS011;5303;53.266;10.410;2022-10-15T11:35:20;6.00;;;4.23;;
10509;SDS011;5303;53.266;10.410;2022-10-15T11:46:29;4.50;;;3.30;;
10509;SDS011;5303;53.266;10.410;2022-10-15T11:54:42;5.10;;;2.90;;
10509;SDS011;5303;53.266;10.410;2022-10-15T11:57:12;4.30;;;2.80;;
10509;SDS011;5303;53.266;10.410;2022-10-15T11:59:48;4.70;;;2.87;;
10509;SDS011;5303;53.266;10.410;2022-10-15T12:02:27;4.63;;;2.93;;
10509;SDS011;5303;53.266;10.410;2022-10-15T12:04:57;3.10;;;2.80;;
10509;SDS011;5303;53.266;10.410;2022-10-15T12:07:36;3.27;;;2.70;;
10509;SDS011;5303;53.266;10.410;2022-10-15T12:17:45;4.90;;;3.57;;
10509;SDS011;5303;53.266;10.410;2022-10-15T12:20:18;3.50;;;3.20;;
10509;SDS011;5303;53.266;10.410;2022-10-15T12:28:01;7.27;;;4.50;;
10509;SDS011;5303;53.266;10.410;2022-10-15T12:30:33;5.30;;;4.80;;
10509;SDS011;5303;53.266;10.410;2022-10-15T12:33:01;7.40;;;4.90;;
10509;SDS011;5303;53.266;10.410;2022-10-15T12:35:36;7.47;;;5.73;;
10509;SDS011;5303;53.266;10.410;2022-10-15T12:38:09;9.40;;;7.03;;
10509;SDS011;5303;53.266;10.410;2022-10-15T12:40:42;9.90;;;7.93;;
10509;SDS011;5303;53.266;10.410;2022-10-15T12:43:12;10.53;;;9.07;;
10509;SDS011;5303;53.266;10.410;2022-10-15T12:45:40;13.10;;;11.00;;
10509;SDS011;5303;53.266;10.410;2022-10-15T12:50:39;11.50;;;10.17;;
10509;SDS011;5303;53.266;10.410;2022-10-15T12:58:38;13.03;;;10.53;;
10509;SDS011;5303;53.266;10.410;2022-10-15T13:08:45;12.30;;;10.47;;
10509;SDS011;5303;53.266;10.410;2022-10-15T13:11:29;11.07;;;9.13;;
10509;SDS011;5303;53.266;10.410;2022-10-15T13:14:33;11.32;;;9.95;;
10509;SDS011;5303;53.266;10.410;2022-10-15T13:17:39;10.20;;;9.10;;
10509;SDS011;5303;53.266;10.410;2022-10-15T13:20:03;12.17;;;9.67;;
10509;SDS011;5303;53.266;10.410;2022-10-15T13:22:32;10.63;;;9.00;;
10509;SDS011;5303;53.266;10.410;2022-10-15T13:24:59;11.37;;;9.40;;
10509;SDS011;5303;53.266;10.410;2022-10-15T13:29:53;12.40;;;9.80;;
10509;SDS011;5303;53.266;10.410;2022-10-15T13:32:24;10.10;;;9.00;;
10509;SDS011;5303;53.266;10.410;2022-10-15T13:34:51;11.27;;;8.83;;
10509;SDS011;5303;53.266;10.410;2022-10-15T13:37:18;10.23;;;8.93;;
10509;SDS011;5303;53.266;10.410;2022-10-15T13:39:48;9.87;;;8.67;;
10509;SDS011;5303;53.266;10.410;2022-10-15T13:42:17;9.80;;;8.87;;
10509;SDS011;5303;53.266;10.410;2022-10-15T13:45:00;10.60;;;9.47;;
10509;SDS011;5303;53.266;10.410;2022-10-15T13:47:46;10.60;;;8.60;;
10509;SDS011;5303;53.266;10.410;2022-10-15T13:50:16;8.53;;;7.47;;
10509;SDS011;5303;53.266;10.410;2022-10-15T13:52:45;8.67;;;7.67;;
10509;SDS011;5303;53.266;10.410;2022-10-15T13:55:32;9.07;;;8.00;;
10509;SDS011;5303;53.266;10.410;2022-10-15T13:58:05;8.47;;;7.67;;
10509;SDS011;5303;53.266;10.410;2022-10-15T14:00:42;8.83;;;7.93;;
10509;SDS011;5303;53.266;10.410;2022-10-15T14:03:18;9.33;;;7.57;;
10509;SDS011;5303;53.266;10.410;2022-10-15T14:05:47;9.77;;;8.03;;
10509;SDS011;5303;53.266;10.410;2022-10-15T14:08:27;9.27;;;7.60;;
10509;SDS011;5303;53.266;10.410;2022-10-15T14:10:57;8.00;;;7.30;;
10509;SDS011;5303;53.266;10.410;2022-10-15T14:13:24;7.63;;;6.83;;
10509;SDS011;5303;53.266;10.410;2022-10-15T14:18:41;10.47;;;7.97;;
10509;SDS011;5303;53.266;10.410;2022-10-15T14:21:09;8.27;;;7.43;;
10509;SDS011;5303;53.266;10.410;2022-10-15T14:23:36;9.70;;;8.07;;
10509;SDS011;5303;53.266;10.410;2022-10-15T14:26:03;9.27;;;8.33;;
10509;SDS011;5303;53.266;10.410;2022-10-15T14:28:29;8.80;;;7.40;;
10509;SDS011;5303;53.266;10.410;2022-10-15T14:30:56;9.20;;;7.40;;
10509;SDS011;5303;53.266;10.410;2022-10-15T14:38:43;8.60;;;7.30;;
10509;SDS011;5303;53.266;10.410;2022-10-15T14:46:35;8.10;;;7.30;;
10509;SDS011;5303;53.266;10.410;2022-10-15T14:49:29;10.33;;;7.20;;
10509;SDS011;5303;53.266;10.410;2022-10-15T14:54:33;7.30;;;6.60;;
10509;SDS011;5303;53.266;10.410;2022-10-15T14:57:02;7.23;;;6.53;;
10509;SDS011;5303;53.266;10.410;2022-10-15T14:59:31;8.33;;;6.80;;
10509;SDS011;5303;53.266;10.410;2022-10-15T15:02:00;8.63;;;6.37;;
10509;SDS011;5303;53.266;10.410;2022-10-15T15:04:32;7.37;;;6.67;;
10509;SDS011;5303;53.266;10.410;2022-10-15T15:07:05;7.90;;;6.80;;
10509;SDS011;5303;53.266;10.410;2022-10-15T15:09:36;6.90;;;6.20;;
10509;SDS011;5303;53.266;10.410;2022-10-15T15:12:03;7.53;;;6.50;;
10509;SDS011;5303;53.266;10.410;2022-10-15T15:14:29;7.00;;;6.07;;
10509;SDS011;5303;53.266;10.410;2022-10-15T15:16:55;6.57;;;5.97;;
10509;SDS011;5303;53.266;10.410;2022-10-15T15:19:20;6.97;;;6.03;;
10509;SDS011;5303;53.266;10.410;2022-10-15T15:21:45;10.20;;;5.70;;
10509;SDS011;5303;53.266;10.410;2022-10-15T15:24:11;7.07;;;6.20;;
10509;SDS011;5303;53.266;10.410;2022-10-15T15:26:36;7.53;;;6.17;;
10509;SDS011;5303;53.266;10.410;2022-10-15T15:29:02;7.67;;;6.33;;
10509;SDS011;5303;53.266;10.410;2022-10-15T15:31:32;9.13;;;5.87;;
10509;SDS011;5303;53.266;10.410;2022-10-15T15:33:57;7.57;;;6.03;;
10509;SDS011;5303;53.266;10.410;2022-10-15T15:36:23;7.07;;;5.83;;
10509;SDS011;5303;53.266;10.410;2022-10-15T15:38:48;7.00;;;5.57;;
10509;SDS011;5303;53.266;10.410;2022-10-15T15:41:15;6.07;;;5.50;;
10509;SDS011;5303;53.266;10.410;2022-10-15T15:43:43;7.77;;;6.07;;
10509;SDS011;5303;53.266;10.410;2022-10-15T15:46:09;7.30;;;6.03;;
10509;SDS011;5303;53.266;10.410;2022-10-15T15:48:35;6.70;;;6.00;;
10509;SDS011;5303;53.266;10.410;2022-10-15T15:51:01;7.57;;;6.07;;
10509;SDS011;5303;53.266;10.410;2022-10-15T15:53:29;6.97;;;6.27;;
10509;SDS011;5303;53.266;10.410;2022-10-15T15:55:54;6.83;;;6.13;;
10509;SDS011;5303;53.266;10.410;2022-10-15T15:58:19;6.93;;;5.63;;
10509;SDS011;5303;53.266;10.410;2022-10-15T16:00:46;7.47;;;6.70;;
10509;SDS011;5303;53.266;10.410;2022-10-15T16:03:12;7.57;;;6.23;;
10509;SDS011;5303;53.266;10.410;2022-10-15T16:05:38;11.67;;;8.13;;
10509;SDS011;5303;53.266;10.410;2022-10-15T16:08:04;12.53;;;8.10;;
10509;SDS011;5303;53.266;10.410;2022-10-15T16:10:30;10.47;;;7.37;;
10509;SDS011;5303;53.266;10.410;2022-10-15T16:12:56;7.03;;;6.33;;
10509;SDS011;5303;53.266;10.410;2022-10-15T16:15:21;8.60;;;5.90;;
10509;SDS011;5303;53.266;10.410;2022-10-15T16:17:46;6.97;;;5.90;;
10509;SDS011;5303;53.266;10.410;2022-10-15T16:20:12;6.50;;;5.73;;
10509;SDS011;5303;53.266;10.410;2022-10-15T16:22:37;6.53;;;5.67;;
10509;SDS011;5303;53.266;10.410;2022-10-15T16:25:03;8.03;;;5.97;;
10509;SDS011;5303;53.266;10.410;2022-10-15T16:27:28;7.70;;;5.77;;
10509;SDS011;5303;53.266;10.410;2022-10-15T16:29:54;6.73;;;6.03;;
10509;SDS011;5303;53.266;10.410;2022-10-15T16:32:19;5.23;;;4.83;;
10509;SDS011;5303;53.266;10.410;2022-10-15T16:34:44;6.90;;;6.10;;
10509;SDS011;5303;53.266;10.410;2022-10-15T16:37:09;5.90;;;5.40;;
10509;SDS011;5303;53.266;10.410;2022-10-15T16:39:35;8.37;;;6.07;;